Time;durP1;ratioP1;P1;durP2;ratioP2;P2;SDS_P1;SDS_P2;PMS_P1;PMS_P2;Temp;Humidity;BMP_temperature;BMP_pressure;BME280_temperature;BME280_humidity;BME280_pressure;Samples;Min_cycle;Max_cycle;Signal;HPM_P1;HPM_P2
2022/01/10 00:00:41;;;;;;;14.23;10.77;;;3.40;99.90;;;4.12;100.00;-19867.19;5013614;28;20220;-67
2022/01/10 00:03:09;;;;;;;12.73;9.90;;;3.40;99.90;;;4.17;100.00;-19868.72;5013436;28;20233;-68
2022/01/10 00:05:38;;;;;;;14.20;10.37;;;3.40;99.90;;;4.11;100.00;-19866.84;5011313;28;20228;-66
2022/01/10 00:08:06;;;;;;;14.70;9.37;;;3.40;99.90;;;4.11;100.00;-19866.84;5013152;28;20718;-67
2022/01/10 00:10:36;;;;;;;16.27;9.60;;;3.40;99.90;;;4.14;100.00;-19867.88;5013449;28;20225;-66
2022/01/10 00:13:04;;;;;;;13.37;9.57;;;3.40;99.90;;;4.28;100.00;-19872.47;5014395;28;20201;-67
2022/01/10 00:15:32;;;;;;;13.47;9.97;;;3.40;99.90;;;4.36;100.00;-19875.38;5013797;28;20725;-68
2022/01/10 00:18:00;;;;;;;14.40;10.17;;;3.40;99.90;;;4.34;100.00;-19874.69;5014142;28;20311;-67
2022/01/10 00:20:28;;;;;;;14.20;10.53;;;3.50;99.90;;;4.26;100.00;-19871.78;4994474;28;20290;-68
2022/01/10 00:22:57;;;;;;;17.13;10.10;;;3.50;99.90;;;4.34;100.00;-19874.69;4993910;28;20254;-67
2022/01/10 00:25:25;;;;;;;14.57;10.40;;;3.50;99.90;;;4.32;100.00;-19874.03;4994978;28;20241;-66
2022/01/10 00:27:56;;;;;;;15.10;9.77;;;3.60;99.90;;;4.21;100.00;-19870.25;5012599;28;20265;-66
2022/01/10 00:30:26;;;;;;;13.97;9.43;;;3.50;99.90;;;4.33;100.00;-19874.34;5014329;28;20747;-68
2022/01/10 00:32:54;;;;;;;13.57;9.13;;;3.50;99.90;;;4.22;100.00;-19870.59;5014456;28;20228;-68
2022/01/10 00:35:22;;;;;;;14.73;10.53;;;3.50;99.90;;;4.19;100.00;-19869.41;5014177;28;20658;-66
2022/01/10 00:37:51;;;;;;;14.27;9.13;;;3.50;99.90;;;4.19;100.00;-19869.56;5012690;28;20254;-67
2022/01/10 00:40:21;;;;;;;15.13;9.60;;;3.60;99.90;;;4.28;100.00;-19872.47;5013916;28;20716;-68
2022/01/10 00:42:54;;;;;;;13.27;9.33;;;3.60;99.90;;;4.41;100.00;-19877.09;5013853;28;20313;-67
2022/01/10 00:45:27;;;;;;;12.73;9.93;;;3.60;99.90;;;4.39;100.00;-19876.41;5013758;28;20246;-67
2022/01/10 00:47:59;;;;;;;11.67;9.20;;;3.60;99.90;;;4.38;100.00;-19875.91;5013059;28;20261;-67
2022/01/10 00:50:29;;;;;;;16.00;11.80;;;3.60;99.90;;;4.43;100.00;-19877.78;5013821;28;20222;-66
2022/01/10 00:52:58;;;;;;;16.63;11.47;;;3.60;99.90;;;4.41;100.00;-19876.94;5012890;28;20251;-67
2022/01/10 00:55:26;;;;;;;11.67;9.50;;;3.60;99.90;;;4.39;100.00;-19876.25;5010701;28;20702;-67
2022/01/10 00:57:54;;;;;;;13.10;8.77;;;3.70;99.90;;;4.49;100.00;-19879.81;5012875;28;20386;-67
2022/01/10 01:00:24;;;;;;;12.53;8.70;;;3.70;99.90;;;4.51;100.00;-19880.34;5012717;28;20313;-67
2022/01/10 01:02:52;;;;;;;13.57;8.47;;;3.60;99.90;;;4.40;100.00;-19876.56;5013153;28;20226;-67
2022/01/10 01:05:22;;;;;;;14.17;8.17;;;3.60;99.90;;;4.43;100.00;-19877.59;5012768;28;20260;-67
2022/01/10 01:07:50;;;;;;;9.53;7.50;;;3.60;99.90;;;4.40;100.00;-19876.56;5010908;28;20317;-66
2022/01/10 01:10:56;;;;;;;11.93;7.50;;;3.60;99.90;;;4.52;100.00;-19880.69;5013961;28;20296;-67
2022/01/10 01:13:29;;;;;;;11.47;7.33;;;3.60;99.90;;;4.46;100.00;-19878.63;5013489;28;20314;-67
2022/01/10 01:16:16;;;;;;;13.47;8.17;;;3.60;99.90;;;4.41;100.00;-19877.09;5013498;28;20231;-66
2022/01/10 01:24:14;;;;;;;13.50;8.27;;;3.60;99.90;;;4.37;100.00;-19875.72;5012655;28;20769;-68
2022/01/10 01:26:46;;;;;;;11.77;7.63;;;3.60;99.90;;;4.40;100.00;-19876.56;5013067;28;20282;-66
2022/01/10 01:29:17;;;;;;;13.10;7.83;;;3.60;99.90;;;4.32;100.00;-19874.03;5013244;28;20319;-68
2022/01/10 01:31:47;;;;;;;11.77;8.40;;;3.60;99.90;;;4.37;100.00;-19875.72;5012754;28;20610;-67
2022/01/10 01:34:17;;;;;;;11.03;8.07;;;3.60;99.90;;;4.62;100.00;-19884.28;5013400;28;20630;-68
2022/01/10 01:36:50;;;;;;;14.47;8.07;;;3.60;99.90;;;4.42;100.00;-19877.44;5012526;28;20331;-69
2022/01/10 01:39:22;;;;;;;10.73;7.40;;;3.70;99.90;;;4.34;100.00;-19874.53;5012301;28;20593;-67
2022/01/10 01:41:54;;;;;;;12.80;7.90;;;3.60;99.90;;;4.33;100.00;-19874.19;5011670;28;20316;-66
2022/01/10 01:44:22;;;;;;;13.47;7.67;;;3.60;99.90;;;4.39;100.00;-19876.41;5012544;28;20226;-66
2022/01/10 01:46:52;;;;;;;11.00;8.00;;;3.70;99.90;;;4.24;100.00;-19871.13;5012242;28;20316;-66
2022/01/10 01:49:20;;;;;;;11.67;8.00;;;3.50;99.90;;;4.07;100.00;-19865.47;5012429;28;20728;-67
2022/01/10 01:51:48;;;;;;;13.43;8.20;;;3.50;99.90;;;3.89;100.00;-19859.31;5011716;28;20267;-67
2022/01/10 01:54:17;;;;;;;13.67;8.77;;;3.40;99.90;;;3.95;100.00;-19861.19;5011203;28;20314;-68
2022/01/10 01:56:49;;;;;;;11.17;8.03;;;3.30;99.90;;;3.90;100.00;-19859.66;5011999;28;20227;-67
2022/01/10 01:59:17;;;;;;;13.03;8.53;;;3.30;99.90;;;3.83;100.00;-19857.09;5011907;28;20784;-68
2022/01/10 02:01:46;;;;;;;13.33;9.20;;;3.20;99.90;;;3.91;100.00;-19860.00;5012085;28;20237;-67
2022/01/10 02:04:15;;;;;;;14.23;8.40;;;3.20;99.90;;;3.87;100.00;-19858.63;5013078;28;20220;-67
2022/01/10 02:06:43;;;;;;;15.97;9.03;;;3.20;99.90;;;3.92;100.00;-19860.34;5011795;28;20248;-67
2022/01/10 02:09:14;;;;;;;10.27;7.83;;;3.10;99.90;;;3.69;100.00;-19852.47;5009735;28;20231;-67
2022/01/10 02:11:42;;;;;;;12.70;8.97;;;3.10;99.90;;;3.68;100.00;-19852.31;5011876;28;20255;-67
2022/01/10 02:14:10;;;;;;;10.87;8.23;;;3.00;99.90;;;3.66;100.00;-19851.63;5012143;28;20308;-67
2022/01/10 02:16:43;;;;;;;12.53;7.93;;;3.00;99.90;;;3.72;100.00;-19853.69;5011896;28;20301;-68
2022/01/10 02:19:13;;;;;;;10.80;8.07;;;3.00;99.90;;;3.78;100.00;-19855.56;5009963;28;20235;-63
2022/01/10 02:21:42;;;;;;;11.97;7.83;;;3.10;99.90;;;4.00;100.00;-19862.91;5011679;28;20310;-64
2022/01/10 02:24:11;;;;;;;16.03;8.00;;;3.10;99.90;;;3.95;100.00;-19861.19;5011892;28;20228;-64
2022/01/10 02:26:40;;;;;;;13.77;7.40;;;3.10;99.90;;;3.81;100.00;-19856.59;5011274;28;20308;-63
2022/01/10 02:29:09;;;;;;;11.37;8.37;;;3.10;99.90;;;3.87;100.00;-19858.63;5012041;28;20227;-64
2022/01/10 02:31:39;;;;;;;11.90;7.50;;;3.10;99.90;;;3.84;100.00;-19857.44;5011512;28;20680;-64
2022/01/10 02:34:09;;;;;;;10.03;7.43;;;3.10;99.90;;;3.90;100.00;-19859.66;5012674;28;20183;-63
2022/01/10 02:36:38;;;;;;;9.17;6.73;;;3.20;99.90;;;3.94;100.00;-19860.84;5011709;28;20237;-63
2022/01/10 02:39:10;;;;;;;13.20;7.73;;;3.20;99.90;;;3.84;100.00;-19857.59;5011477;28;20720;-63
2022/01/10 02:41:43;;;;;;;12.10;7.57;;;3.20;99.90;;;3.87;100.00;-19858.47;5009968;28;20594;-63
2022/01/10 02:44:15;;;;;;;20.73;9.37;;;3.20;99.90;;;3.96;100.00;-19861.72;5011664;28;20290;-63
2022/01/10 02:46:46;;;;;;;12.83;8.67;;;3.20;99.90;;;4.01;100.00;-19863.41;5012023;28;20209;-63
2022/01/10 02:49:16;;;;;;;12.87;8.23;;;3.20;99.90;;;3.96;100.00;-19861.72;5009750;28;20674;-63
2022/01/10 02:51:44;;;;;;;12.87;8.93;;;3.20;99.90;;;3.92;100.00;-19860.34;5011069;28;20575;-63
2022/01/10 02:54:14;;;;;;;15.43;9.27;;;3.20;99.90;;;3.98;100.00;-19862.22;5010768;28;20282;-64
2022/01/10 02:56:51;;;;;;;14.40;8.70;;;3.30;99.90;;;4.05;100.00;-19864.63;5011548;28;20279;-62
2022/01/10 02:59:20;;;;;;;14.67;9.70;;;3.30;99.90;;;4.04;100.00;-19864.28;5007012;28;20306;-63
2022/01/10 03:01:50;;;;;;;15.80;10.20;;;3.30;99.90;;;4.10;100.00;-19866.31;5011606;28;20251;-63
2022/01/10 03:04:19;;;;;;;13.13;8.97;;;3.30;99.90;;;4.18;100.00;-19869.22;5011589;28;20736;-64
2022/01/10 03:06:48;;;;;;;11.90;8.60;;;3.40;99.90;;;4.14;100.00;-19867.88;5010692;28;20247;-63
2022/01/10 03:09:18;;;;;;;13.63;8.20;;;3.40;99.90;;;4.31;100.00;-19873.50;5008876;28;20215;-64
2022/01/10 03:11:46;;;;;;;12.20;8.70;;;3.40;99.90;;;4.29;100.00;-19873.00;5014090;28;20740;-63
2022/01/10 03:14:14;;;;;;;11.60;8.77;;;3.40;99.90;;;4.22;100.00;-19870.59;5007138;28;20257;-63
2022/01/10 03:16:43;;;;;;;14.83;8.60;;;3.40;99.90;;;4.20;100.00;-19869.75;5014797;28;20630;-63
2022/01/10 03:19:11;;;;;;;11.47;8.00;;;3.50;99.90;;;4.25;100.00;-19871.44;5015146;28;20229;-63
2022/01/10 03:21:39;;;;;;;12.17;7.60;;;3.50;99.90;;;4.27;100.00;-19872.31;5014312;28;20561;-63
2022/01/10 03:24:07;;;;;;;11.73;6.90;;;3.50;99.90;;;4.20;100.00;-19869.75;5014802;28;20222;-63
2022/01/10 03:26:36;;;;;;;11.83;7.63;;;3.50;99.90;;;4.30;100.00;-19873.34;5012491;28;20249;-63
2022/01/10 03:29:04;;;;;;;10.13;8.40;;;3.40;99.90;;;4.48;100.00;-19879.47;5015243;28;20281;-62
2022/01/10 03:31:32;;;;;;;15.00;8.43;;;3.50;99.90;;;4.31;100.00;-19873.50;5014984;28;20217;-63
2022/01/10 03:34:01;;;;;;;17.17;8.00;;;3.50;99.90;;;4.45;100.00;-19878.47;5015309;28;20729;-63
2022/01/10 03:36:29;;;;;;;11.57;8.70;;;3.50;99.90;;;4.34;100.00;-19874.69;5014627;28;20258;-63
2022/01/10 03:38:57;;;;;;;13.53;9.27;;;3.50;99.90;;;4.25;100.00;-19871.44;5014440;28;20228;-63
2022/01/10 03:41:25;;;;;;;14.60;9.83;;;3.50;99.90;;;4.23;100.00;-19870.94;5015200;28;20259;-63
2022/01/10 03:43:54;;;;;;;16.50;10.47;;;3.50;99.90;;;4.24;100.00;-19871.28;5014506;28;20767;-63
2022/01/10 03:46:22;;;;;;;13.67;9.87;;;3.50;99.90;;;4.31;100.00;-19873.66;5015457;28;20233;-64
2022/01/10 03:48:51;;;;;;;12.67;8.57;;;3.50;99.90;;;4.27;100.00;-19872.13;5013571;28;20276;-62
2022/01/10 03:51:19;;;;;;;12.67;7.77;;;3.40;99.90;;;4.26;100.00;-19871.97;5014274;28;20237;-65
2022/01/10 03:53:47;;;;;;;12.50;7.70;;;3.40;99.90;;;4.22;100.00;-19870.44;5013513;28;20222;-64
2022/01/10 03:56:15;;;;;;;13.07;7.77;;;3.40;99.90;;;4.20;100.00;-19869.91;5010865;28;20249;-63
2022/01/10 03:58:43;;;;;;;10.53;7.60;;;3.50;99.90;;;4.18;100.00;-19869.06;5014191;28;20229;-64
2022/01/10 04:01:13;;;;;;;13.67;8.73;;;3.50;99.90;;;4.30;100.00;-19873.16;5014401;28;20749;-63
2022/01/10 04:03:42;;;;;;;13.73;9.53;;;3.50;99.90;;;4.38;100.00;-19876.06;5014097;28;20232;-64
2022/01/10 04:06:10;;;;;;;13.20;10.13;;;3.50;99.90;;;4.40;100.00;-19876.75;5013851;28;20229;-62
2022/01/10 04:08:38;;;;;;;12.27;8.30;;;3.50;99.90;;;4.37;100.00;-19875.72;5013551;28;20227;-64
2022/01/10 04:11:07;;;;;;;9.80;7.70;;;3.50;99.90;;;4.30;100.00;-19873.34;5014244;28;20232;-64
2022/01/10 04:13:36;;;;;;;10.40;7.27;;;3.50;99.90;;;4.33;100.00;-19874.19;5011250;28;20221;-65
2022/01/10 04:16:04;;;;;;;12.33;7.33;;;3.50;99.90;;;4.28;100.00;-19872.66;5014539;28;20232;-64
2022/01/10 04:18:34;;;;;;;12.03;7.23;;;3.50;99.90;;;4.30;100.00;-19873.34;5013580;28;20219;-65
2022/01/10 04:21:02;;;;;;;13.03;7.47;;;3.50;99.90;;;4.33;100.00;-19874.34;5012388;28;20725;-63
2022/01/10 04:23:30;;;;;;;11.87;7.23;;;3.50;99.90;;;4.35;100.00;-19875.03;5011610;28;20272;-64
2022/01/10 04:25:58;;;;;;;7.97;6.40;;;3.50;99.90;;;4.32;100.00;-19873.84;5011319;28;20264;-64
2022/01/10 04:28:27;;;;;;;9.80;6.87;;;3.50;99.90;;;4.38;100.00;-19876.06;5014115;28;20197;-64
2022/01/10 04:30:55;;;;;;;8.80;6.97;;;3.50;99.90;;;4.28;100.00;-19872.47;5013553;28;20308;-63
2022/01/10 04:33:28;;;;;;;10.87;7.17;;;3.50;99.90;;;4.42;100.00;-19877.44;5013490;28;20229;-64
2022/01/10 04:35:59;;;;;;;11.10;6.83;;;3.50;99.90;;;4.33;100.00;-19874.34;5012342;28;20557;-66
2022/01/10 04:38:27;;;;;;;12.50;7.37;;;3.50;99.90;;;4.33;100.00;-19874.34;5013629;28;20222;-64
2022/01/10 04:40:56;;;;;;;11.67;7.17;;;3.50;99.90;;;4.46;100.00;-19878.81;5013335;28;20226;-64
2022/01/10 04:43:24;;;;;;;10.57;6.90;;;3.50;99.90;;;4.42;100.00;-19877.44;5013954;28;20228;-64
2022/01/10 04:45:58;;;;;;;9.57;6.90;;;3.60;99.90;;;4.41;100.00;-19876.94;5011159;28;20212;-65
2022/01/10 04:48:26;;;;;;;13.57;7.37;;;3.60;99.90;;;4.41;100.00;-19876.94;5013258;28;20710;-65
2022/01/10 04:53:46;;;;;;;12.47;8.00;;;3.60;99.90;;;4.39;100.00;-19876.41;5010963;28;20222;-64
2022/01/10 04:56:16;;;;;;;11.47;7.33;;;3.60;99.90;;;4.44;100.00;-19877.94;5012515;28;20229;-65
2022/01/10 04:58:46;;;;;;;13.30;7.30;;;3.60;99.90;;;4.36;100.00;-19875.38;5012788;28;20512;-65
2022/01/10 05:01:16;;;;;;;12.13;8.13;;;3.60;99.90;;;4.41;100.00;-19877.09;5013442;28;20230;-65
2022/01/10 05:03:44;;;;;;;10.43;7.50;;;3.60;99.90;;;4.63;100.00;-19884.59;5012769;28;20312;-66
2022/01/10 05:06:13;;;;;;;9.90;7.00;;;3.60;99.90;;;4.54;100.00;-19881.53;5011404;28;20228;-64
2022/01/10 05:08:42;;;;;;;12.13;8.03;;;3.60;99.90;;;4.49;100.00;-19879.66;5011109;28;20224;-64
2022/01/10 05:11:10;;;;;;;15.33;8.37;;;3.60;99.90;;;4.47;100.00;-19879.16;5011236;28;20308;-64
2022/01/10 05:13:39;;;;;;;12.13;8.07;;;3.60;99.90;;;4.48;100.00;-19879.47;5009061;28;20225;-64
2022/01/10 05:16:07;;;;;;;10.83;8.50;;;3.60;99.90;;;4.42;100.00;-19877.44;5011743;28;20661;-65
2022/01/10 05:18:38;;;;;;;13.10;7.77;;;3.60;99.90;;;4.49;100.00;-19879.66;5011716;28;20256;-65
2022/01/10 05:21:07;;;;;;;12.17;7.87;;;3.60;99.90;;;4.56;100.00;-19882.22;5012564;28;20320;-65
2022/01/10 05:23:35;;;;;;;11.47;7.33;;;3.70;99.90;;;4.62;100.00;-19884.28;5012732;28;20245;-65
2022/01/10 05:26:06;;;;;;;11.67;7.40;;;3.70;99.90;;;4.48;100.00;-19879.47;5012365;28;20573;-65
2022/01/10 05:28:34;;;;;;;11.27;7.67;;;3.70;99.90;;;4.40;100.00;-19876.75;5012947;28;20229;-65
2022/01/10 05:31:02;;;;;;;13.50;8.80;;;3.60;99.90;;;4.46;100.00;-19878.63;5013450;28;20301;-67
2022/01/10 05:33:30;;;;;;;13.33;8.73;;;3.60;99.90;;;4.56;100.00;-19882.06;5012344;28;20241;-65
2022/01/10 05:35:58;;;;;;;12.83;8.03;;;3.60;99.90;;;4.46;100.00;-19878.81;5012369;28;20221;-64
2022/01/10 05:38:27;;;;;;;11.90;8.00;;;3.60;99.90;;;4.48;100.00;-19879.47;5012609;28;20265;-65
2022/01/10 05:40:55;;;;;;;12.37;8.30;;;3.70;99.90;;;4.51;100.00;-19880.34;5011598;28;20305;-66
2022/01/10 05:43:25;;;;;;;13.07;8.30;;;3.60;99.90;;;4.58;100.00;-19882.75;5012712;28;20241;-65
2022/01/10 05:45:53;;;;;;;13.27;8.37;;;3.70;99.90;;;4.49;100.00;-19879.81;5012399;28;20272;-65
2022/01/10 05:48:26;;;;;;;11.80;8.70;;;3.70;99.90;;;4.48;100.00;-19879.47;5012548;28;20280;-65
2022/01/10 05:50:54;;;;;;;15.83;8.20;;;3.60;99.90;;;4.45;100.00;-19878.47;5012357;28;20232;-66
2022/01/10 05:53:23;;;;;;;13.57;8.80;;;3.70;99.90;;;4.51;100.00;-19880.34;5011933;28;20680;-65
2022/01/10 05:55:51;;;;;;;11.07;8.17;;;3.60;99.90;;;4.49;100.00;-19879.66;5008167;28;20264;-65
2022/01/10 05:58:20;;;;;;;11.10;7.93;;;3.70;99.90;;;4.44;100.00;-19878.13;5012425;28;20223;-65
2022/01/10 06:00:50;;;;;;;12.80;9.07;;;3.70;99.90;;;4.46;100.00;-19878.81;5011785;28;20320;-65
2022/01/10 06:03:18;;;;;;;12.40;9.00;;;3.70;99.90;;;4.45;100.00;-19878.47;5011873;28;20234;-65
2022/01/10 06:05:46;;;;;;;13.77;9.03;;;3.70;99.90;;;4.58;100.00;-19882.91;5011836;28;20656;-66
2022/01/10 06:08:14;;;;;;;13.77;9.40;;;3.70;99.90;;;4.50;100.00;-19880.16;5011856;28;20317;-66
2022/01/10 06:10:43;;;;;;;15.00;9.10;;;3.70;99.90;;;4.45;100.00;-19878.47;5011702;28;20256;-65
2022/01/10 06:13:11;;;;;;;13.67;9.40;;;3.70;99.90;;;4.44;100.00;-19878.13;5012300;28;20538;-66
2022/01/10 06:15:41;;;;;;;14.93;8.60;;;3.70;99.90;;;4.45;100.00;-19878.47;5011511;28;20278;-66
2022/01/10 06:18:10;;;;;;;12.77;8.37;;;3.70;99.90;;;4.42;100.00;-19877.25;5012012;28;20283;-65
2022/01/10 06:20:38;;;;;;;13.17;8.77;;;3.70;99.90;;;4.44;100.00;-19878.13;5011536;28;20290;-65
2022/01/10 06:23:09;;;;;;;13.27;7.43;;;3.70;99.90;;;4.49;100.00;-19879.81;5011871;28;20226;-65
2022/01/10 06:25:37;;;;;;;14.70;9.10;;;3.70;99.90;;;4.51;100.00;-19880.50;5011229;28;20650;-65
2022/01/10 06:28:06;;;;;;;15.67;8.97;;;3.60;99.90;;;4.36;100.00;-19875.38;5011707;28;20198;-65
2022/01/10 06:30:34;;;;;;;14.50;8.53;;;3.60;99.90;;;4.35;100.00;-19875.03;5011221;28;20287;-65
2022/01/10 06:33:03;;;;;;;14.03;8.67;;;3.60;99.90;;;4.28;100.00;-19872.66;5011192;28;20304;-65
2022/01/10 06:35:35;;;;;;;14.40;8.53;;;3.60;99.90;;;4.36;100.00;-19875.22;5011303;28;20266;-65
2022/01/10 06:38:03;;;;;;;16.73;9.47;;;3.50;99.90;;;4.39;100.00;-19876.25;5010869;28;20247;-65
2022/01/10 06:40:32;;;;;;;16.30;8.97;;;3.60;99.90;;;4.36;100.00;-19875.22;5011355;28;20629;-65
2022/01/10 06:43:00;;;;;;;14.50;9.33;;;3.60;99.90;;;4.38;100.00;-19875.91;5011331;28;20226;-64
2022/01/10 06:45:28;;;;;;;11.73;8.37;;;3.60;99.90;;;4.36;100.00;-19875.38;5011690;28;20593;-68
2022/01/10 06:47:56;;;;;;;12.13;8.87;;;3.60;99.90;;;4.43;100.00;-19877.59;5015054;28;20587;-65
2022/01/10 06:50:24;;;;;;;13.53;8.43;;;3.70;99.90;;;4.43;100.00;-19877.78;5015230;28;20310;-65
2022/01/10 06:52:55;;;;;;;10.83;8.20;;;3.70;99.90;;;4.39;100.00;-19876.25;5012179;28;20230;-65
2022/01/10 06:55:24;;;;;;;15.30;8.70;;;3.70;99.90;;;4.44;100.00;-19878.13;5015687;28;20313;-63
2022/01/10 06:57:53;;;;;;;12.67;9.07;;;3.70;99.90;;;4.47;100.00;-19878.97;5012307;28;20247;-65
2022/01/10 07:00:22;;;;;;;14.60;8.47;;;3.70;99.90;;;4.57;100.00;-19882.38;5015229;28;20253;-65
2022/01/10 07:02:50;;;;;;;13.10;8.60;;;3.70;99.90;;;4.53;100.00;-19881.19;5015029;28;20252;-64
2022/01/10 07:05:18;;;;;;;15.27;9.27;;;3.70;99.90;;;4.60;100.00;-19883.41;5015328;28;20249;-64
2022/01/10 07:07:46;;;;;;;12.00;8.43;;;3.70;99.90;;;4.49;100.00;-19879.81;5004067;28;20656;-65
2022/01/10 07:10:15;;;;;;;14.13;9.27;;;3.70;99.90;;;4.44;100.00;-19877.94;5015918;28;20256;-64
2022/01/10 07:12:43;;;;;;;16.80;8.23;;;3.70;99.90;;;4.41;100.00;-19877.09;5014849;28;20261;-64
2022/01/10 07:15:12;;;;;;;12.67;8.93;;;3.70;99.90;;;4.36;100.00;-19875.22;5015300;28;20240;-64
2022/01/10 07:17:40;;;;;;;15.13;8.90;;;3.70;99.90;;;4.45;100.00;-19878.47;5015079;28;20226;-64
2022/01/10 07:20:09;;;;;;;15.37;9.27;;;3.70;99.90;;;4.40;100.00;-19876.75;5014853;28;20311;-64
2022/01/10 07:22:40;;;;;;;14.83;8.80;;;3.70;99.90;;;4.42;100.00;-19877.25;5015281;28;20594;-65
2022/01/10 07:25:10;;;;;;;14.30;9.27;;;3.70;99.90;;;4.44;100.00;-19878.13;5014812;28;20923;-64
2022/01/10 07:27:39;;;;;;;15.30;9.50;;;3.70;99.90;;;4.43;100.00;-19877.59;5014607;28;20284;-64
2022/01/10 07:30:09;;;;;;;15.27;10.13;;;3.70;99.90;;;4.42;100.00;-19877.44;5014972;28;20316;-64
2022/01/10 07:32:37;;;;;;;15.93;10.77;;;3.70;99.90;;;4.54;100.00;-19881.38;5014636;28;20252;-64
2022/01/10 07:35:06;;;;;;;17.73;12.00;;;3.70;99.90;;;4.51;100.00;-19880.50;5011823;28;20231;-61
2022/01/10 07:37:34;;;;;;;17.77;10.97;;;3.80;99.90;;;4.54;100.00;-19881.38;5011417;28;20230;-61
2022/01/10 07:40:04;;;;;;;16.87;11.00;;;3.80;99.90;;;4.54;100.00;-19881.53;5014655;28;20256;-64
2022/01/10 07:42:32;;;;;;;18.43;11.80;;;3.70;99.90;;;4.51;100.00;-19880.50;4998548;28;20312;-65
2022/01/10 07:45:01;;;;;;;14.50;9.83;;;3.80;99.90;;;4.49;100.00;-19879.81;5005864;28;20234;-65
2022/01/10 07:47:30;;;;;;;16.87;10.67;;;3.80;99.90;;;4.58;100.00;-19882.91;5010610;28;20238;-64
2022/01/10 07:49:58;;;;;;;15.97;9.67;;;3.80;99.90;;;4.60;100.00;-19883.41;5010527;28;20241;-67
2022/01/10 07:52:26;;;;;;;15.47;9.93;;;3.80;99.90;;;4.67;100.00;-19885.81;5000625;28;20313;-68
2022/01/10 07:54:55;;;;;;;13.57;9.63;;;3.80;99.90;;;4.70;100.00;-19887.00;5010779;28;20756;-70
2022/01/10 07:57:23;;;;;;;13.87;8.87;;;3.90;99.90;;;4.77;100.00;-19889.41;5001053;28;20334;-70
2022/01/10 07:59:51;;;;;;;16.13;8.77;;;3.90;99.90;;;4.88;100.00;-19893.00;5011463;28;20250;-71
2022/01/10 08:02:22;;;;;;;15.30;9.50;;;4.00;99.90;;;4.91;100.00;-19894.19;5011287;28;20884;-70
2022/01/10 08:04:51;;;;;;;15.03;9.13;;;4.00;99.90;;;4.84;100.00;-19891.78;5012116;28;20202;-71
2022/01/10 08:07:19;;;;;;;14.43;8.77;;;4.00;99.90;;;4.87;100.00;-19892.81;5010840;28;20729;-63
2022/01/10 08:09:47;;;;;;;12.73;9.07;;;4.10;99.90;;;4.92;100.00;-19894.34;5009924;28;20230;-63
2022/01/10 08:12:15;;;;;;;12.70;8.20;;;4.10;99.90;;;4.84;100.00;-19891.78;5010175;28;20226;-64
2022/01/10 08:14:43;;;;;;;11.83;8.60;;;4.10;99.90;;;4.92;100.00;-19894.53;5010647;28;20288;-64
2022/01/10 08:17:12;;;;;;;13.67;8.80;;;4.10;99.90;;;4.97;100.00;-19896.06;5011091;28;20195;-62
2022/01/10 08:19:41;;;;;;;14.07;8.70;;;4.10;99.90;;;4.96;100.00;-19895.91;5011281;28;20227;-63
2022/01/10 08:22:10;;;;;;;15.03;9.03;;;4.10;99.90;;;5.13;100.00;-19901.38;5011102;28;20720;-66
2022/01/10 08:24:38;;;;;;;12.87;8.20;;;4.20;99.90;;;5.19;100.00;-19903.41;5010633;28;20226;-65
2022/01/10 08:27:07;;;;;;;12.50;8.50;;;4.30;99.90;;;5.22;100.00;-19904.44;5010613;28;20254;-66
2022/01/10 08:29:35;;;;;;;13.53;8.97;;;4.30;99.90;;;5.31;100.00;-19907.69;5010570;28;20299;-65
2022/01/10 08:32:04;;;;;;;13.87;8.60;;;4.40;99.90;;;5.45;100.00;-19912.31;5010588;28;20630;-64
2022/01/10 08:34:36;;;;;;;11.97;8.30;;;4.40;99.90;;;5.48;100.00;-19913.50;5011191;28;20201;-67
2022/01/10 08:37:05;;;;;;;12.60;7.63;;;4.50;99.90;;;5.44;100.00;-19912.13;5010572;28;20315;-64
2022/01/10 08:39:34;;;;;;;10.90;7.87;;;4.50;99.90;;;5.43;100.00;-19911.78;5010447;28;20226;-63
2022/01/10 08:42:02;;;;;;;12.87;8.80;;;4.50;99.90;;;5.47;100.00;-19912.97;5010281;28;20253;-65
2022/01/10 08:44:31;;;;;;;14.57;7.90;;;4.60;99.90;;;5.68;100.00;-19920.16;5010940;28;20620;-68
2022/01/10 08:46:59;;;;;;;14.07;8.90;;;4.70;99.90;;;5.65;100.00;-19919.31;5010419;28;20682;-68
2022/01/10 08:49:27;;;;;;;11.67;8.70;;;4.70;99.90;;;5.71;100.00;-19921.19;5010420;28;20269;-67
2022/01/10 08:51:57;;;;;;;11.30;8.13;;;4.80;99.90;;;5.71;100.00;-19921.19;5010622;28;20269;-68
2022/01/10 08:54:27;;;;;;;12.27;8.70;;;4.80;99.90;;;5.73;100.00;-19922.03;5010227;28;20240;-61
2022/01/10 08:56:55;;;;;;;11.63;7.90;;;4.80;99.90;;;5.81;100.00;-19924.78;5009737;28;20305;-62
2022/01/10 08:59:24;;;;;;;11.90;8.97;;;4.90;99.90;;;5.78;100.00;-19923.75;5009895;28;20246;-62
2022/01/10 09:01:52;;;;;;;13.77;8.27;;;4.90;99.90;;;5.90;100.00;-19927.84;5010171;28;20246;-61
2022/01/10 09:04:20;;;;;;;11.53;8.10;;;4.90;99.90;;;5.87;100.00;-19926.84;5009386;28;20274;-67
2022/01/10 09:06:50;;;;;;;14.80;8.70;;;4.90;99.90;;;5.84;100.00;-19925.63;5009683;28;20401;-70
2022/01/10 09:09:20;;;;;;;14.40;8.50;;;4.90;99.90;;;5.91;100.00;-19928.22;5009174;28;20325;-71
2022/01/10 09:11:50;;;;;;;13.63;8.47;;;5.00;99.90;;;5.89;100.00;-19927.53;5010267;28;20268;-71
2022/01/10 09:14:18;;;;;;;12.70;8.80;;;5.00;99.90;;;5.93;100.00;-19928.72;5009794;28;20290;-63
2022/01/10 09:16:46;;;;;;;12.33;8.63;;;5.00;99.90;;;5.97;100.00;-19930.09;5010000;28;20234;-65
2022/01/10 09:19:14;;;;;;;14.07;8.67;;;5.00;99.90;;;6.06;100.00;-19933.34;5009105;28;20306;-63
2022/01/10 09:21:43;;;;;;;13.43;8.00;;;5.10;99.90;;;6.03;100.00;-19932.13;5009427;28;20602;-63
2022/01/10 09:24:11;;;;;;;15.10;9.10;;;5.10;99.90;;;6.25;100.00;-19939.47;5009904;28;20320;-64
2022/01/10 09:26:40;;;;;;;13.30;9.37;;;5.20;99.90;;;6.04;100.00;-19932.66;5009682;28;20231;-64
2022/01/10 09:29:10;;;;;;;15.30;10.10;;;5.10;99.90;;;6.02;100.00;-19931.97;5010078;28;20191;-63
2022/01/10 09:31:38;;;;;;;14.83;9.13;;;5.10;99.90;;;5.98;100.00;-19930.44;5010065;28;20207;-63
2022/01/10 09:34:06;;;;;;;15.73;9.67;;;5.10;99.90;;;6.04;100.00;-19932.47;5009520;28;20226;-67
2022/01/10 09:36:34;;;;;;;14.43;9.13;;;5.10;99.90;;;5.96;100.00;-19929.75;5009606;28;20231;-61
2022/01/10 09:39:04;;;;;;;13.30;8.97;;;5.10;99.90;;;5.94;100.00;-19929.22;5009493;28;20309;-60
2022/01/10 09:41:33;;;;;;;14.27;9.00;;;5.10;99.90;;;5.84;100.00;-19925.81;5009236;28;20321;-63
2022/01/10 09:44:04;;;;;;;14.13;9.00;;;5.00;99.90;;;6.19;100.00;-19937.59;5009234;28;20257;-64
2022/01/10 09:46:34;;;;;;;13.40;8.83;;;5.10;99.90;;;6.08;100.00;-19934.00;5009971;28;20197;-69
2022/01/10 09:49:05;;;;;;;14.97;8.73;;;5.10;99.90;;;6.01;100.00;-19931.63;5009404;28;20258;-66
2022/01/10 09:51:34;;;;;;;12.13;7.90;;;5.10;99.90;;;5.99;100.00;-19930.94;5009859;28;20258;-69
2022/01/10 09:54:05;;;;;;;16.40;8.73;;;5.10;99.90;;;5.95;100.00;-19929.56;5009386;28;20268;-67
2022/01/10 09:56:38;;;;;;;12.87;9.53;;;5.10;99.90;;;6.04;100.00;-19932.47;5009180;28;20261;-59
2022/01/10 09:59:07;;;;;;;14.63;8.87;;;5.10;99.90;;;6.03;100.00;-19932.31;5008323;28;20293;-60
2022/01/10 10:01:37;;;;;;;13.37;9.30;;;5.10;99.90;;;6.05;100.00;-19932.81;5008304;28;20242;-59
2022/01/10 10:04:06;;;;;;;15.27;8.70;;;5.10;99.90;;;6.22;100.00;-19938.63;5008618;28;20249;-65
2022/01/10 10:06:34;;;;;;;14.53;9.13;;;5.20;99.90;;;6.41;100.00;-19944.94;5000382;28;20320;-66
2022/01/10 10:09:07;;;;;;;11.23;8.30;;;5.30;99.90;;;6.40;100.00;-19944.59;5008898;28;20648;-67
2022/01/10 10:11:42;;;;;;;15.17;8.37;;;5.30;99.90;;;6.43;100.00;-19945.81;5009367;28;20245;-69
2022/01/10 10:14:13;;;;;;;15.90;8.60;;;5.40;99.90;;;6.60;100.00;-19951.63;5009198;28;20186;-62
2022/01/10 10:16:49;;;;;;;12.00;8.97;;;5.50;99.90;;;6.59;100.00;-19951.28;5009562;28;20193;-62
2022/01/10 10:19:19;;;;;;;12.60;8.93;;;5.50;99.90;;;6.54;100.00;-19949.56;5008860;28;20291;-66
2022/01/10 10:21:48;;;;;;;21.37;9.50;;;5.50;99.90;;;6.59;100.00;-19951.28;5008957;28;20300;-67
2022/01/10 10:24:16;;;;;;;15.00;9.40;;;5.60;99.90;;;6.58;100.00;-19950.94;5008254;28;20299;-58
2022/01/10 10:26:44;;;;;;;17.10;8.80;;;5.60;99.90;;;6.52;100.00;-19948.72;5008438;28;20226;-66
2022/01/10 10:29:17;;;;;;;16.07;9.37;;;5.60;99.90;;;6.67;100.00;-19954.00;5008652;28;20281;-66